Houck, Arizona
Current Conditions -  °F | °C
As of 3:53 PM on Tuesday 27 Jan 2015 (Local Time) from KRQE Reporting Station
Broken Clouds Broken Clouds  
Wind Chill: 57°   Ceiling: 5000
Heat Index: 57°   Visibility: 10mi
Dew Point: 32°   Wind: 13mph
Humidity: 39%   Direction: 250°WSW
Pressure: 30.3"   Gusts: NA
Location:  35.28°N, 109.2°W
Report Text: KRQE 272253Z AUTO 25011KT 10SM BKN050 BKN080 14/00 A3030 RMK AO2 SLP223 T01390000 TSNO
Loading
Personal Weather Stations






























Interactive Weather Map New forecast layout! Learn more

10-Day Weather Forecast

Advertisements
Track Severe Weather on mobile